sensor_id;sensor_type;location;lat;lon;timestamp;pressure;altitude;pressure_sealevel;temperature;humidity
75438;BME280;64015;49.392;15.582;2023-04-01T00:02:47;62277.91;;;-142.60;100.00
75438;BME280;64015;49.392;15.582;2023-04-01T00:06:12;62277.91;;;-142.60;100.00
75438;BME280;64015;49.392;15.582;2023-04-01T00:09:37;62277.91;;;-142.60;100.00
75438;BME280;64015;49.392;15.582;2023-04-01T00:13:02;62277.91;;;-142.60;100.00
75438;BME280;64015;49.392;15.582;2023-04-01T00:16:26;62277.91;;;-142.60;100.00
75438;BME280;64015;49.392;15.582;2023-04-01T00:19:51;62277.91;;;-142.60;100.00
75438;BME280;64015;49.392;15.582;2023-04-01T00:23:15;62277.91;;;-142.60;100.00
75438;BME280;64015;49.392;15.582;2023-04-01T00:26:41;62277.91;;;-142.60;100.00
75438;BME280;64015;49.392;15.582;2023-04-01T00:30:06;62277.91;;;-142.60;100.00
75438;BME280;64015;49.392;15.582;2023-04-01T00:33:32;62277.91;;;-142.60;100.00
75438;BME280;64015;49.392;15.582;2023-04-01T00:37:04;62277.91;;;-142.60;100.00
75438;BME280;64015;49.392;15.582;2023-04-01T00:40:33;62277.91;;;-142.60;100.00
75438;BME280;64015;49.392;15.582;2023-04-01T00:44:12;62277.91;;;-142.60;100.00
75438;BME280;64015;49.392;15.582;2023-04-01T00:47:38;62277.91;;;-142.60;100.00
75438;BME280;64015;49.392;15.582;2023-04-01T00:51:07;62277.91;;;-142.60;100.00
75438;BME280;64015;49.392;15.582;2023-04-01T00:54:33;62277.91;;;-142.60;100.00
75438;BME280;64015;49.392;15.582;2023-04-01T00:57:00;94192.69;;;5.38;100.00
75438;BME280;64015;49.392;15.582;2023-04-01T00:59:31;94191.09;;;5.42;100.00
75438;BME280;64015;49.392;15.582;2023-04-01T01:02:16;94191.09;;;5.42;100.00
75438;BME280;64015;49.392;15.582;2023-04-01T01:04:43;94198.03;;;5.57;100.00
75438;BME280;64015;49.392;15.582;2023-04-01T01:10:49;94213.63;;;5.72;100.00
75438;BME280;64015;49.392;15.582;2023-04-01T01:13:34;94206.69;;;5.86;99.01
75438;BME280;64015;49.392;15.582;2023-04-01T01:19:45;62277.91;;;-142.60;100.00
75438;BME280;64015;49.392;15.582;2023-04-01T01:23:38;62277.91;;;-142.60;100.00
75438;BME280;64015;49.392;15.582;2023-04-01T01:27:19;62277.91;;;-142.60;100.00
75438;BME280;64015;49.392;15.582;2023-04-01T01:38:28;62277.91;;;-142.60;100.00
75438;BME280;64015;49.392;15.582;2023-04-01T01:41:55;62277.91;;;-142.60;100.00
75438;BME280;64015;49.392;15.582;2023-04-01T01:45:22;62277.91;;;-142.60;100.00
75438;BME280;64015;49.392;15.582;2023-04-01T01:48:48;62277.91;;;-142.60;100.00
75438;BME280;64015;49.392;15.582;2023-04-01T01:52:16;62277.91;;;-142.60;100.00
75438;BME280;64015;49.392;15.582;2023-04-01T01:55:47;62277.91;;;-142.60;100.00
75438;BME280;64015;49.392;15.582;2023-04-01T01:59:16;62277.91;;;-142.60;100.00
75438;BME280;64015;49.392;15.582;2023-04-01T02:02:45;62277.91;;;-142.60;100.00
75438;BME280;64015;49.392;15.582;2023-04-01T02:06:15;62277.91;;;-142.60;100.00
75438;BME280;64015;49.392;15.582;2023-04-01T02:09:45;62277.91;;;-142.60;100.00
75438;BME280;64015;49.392;15.582;2023-04-01T02:17:11;62277.91;;;-142.60;100.00
75438;BME280;64015;49.392;15.582;2023-04-01T02:20:44;62277.91;;;-142.60;100.00
75438;BME280;64015;49.392;15.582;2023-04-01T02:24:10;62277.91;;;-142.60;100.00
75438;BME280;64015;49.392;15.582;2023-04-01T02:27:36;62277.91;;;-142.60;100.00
75438;BME280;64015;49.392;15.582;2023-04-01T02:31:01;62277.91;;;-142.60;100.00
75438;BME280;64015;49.392;15.582;2023-04-01T02:34:27;62277.91;;;-142.60;100.00
75438;BME280;64015;49.392;15.582;2023-04-01T02:37:51;62277.91;;;-142.60;100.00
75438;BME280;64015;49.392;15.582;2023-04-01T02:41:17;62277.91;;;-142.60;100.00
75438;BME280;64015;49.392;15.582;2023-04-01T02:44:41;62277.91;;;-142.60;100.00
75438;BME280;64015;49.392;15.582;2023-04-01T02:48:05;62277.91;;;-142.60;100.00
75438;BME280;64015;49.392;15.582;2023-04-01T02:51:30;62277.91;;;-142.60;100.00
75438;BME280;64015;49.392;15.582;2023-04-01T02:54:54;62277.91;;;-142.60;100.00
75438;BME280;64015;49.392;15.582;2023-04-01T02:58:19;62277.91;;;-142.60;100.00
75438;BME280;64015;49.392;15.582;2023-04-01T03:01:43;62277.91;;;-142.60;100.00
75438;BME280;64015;49.392;15.582;2023-04-01T03:05:08;62277.91;;;-142.60;100.00
75438;BME280;64015;49.392;15.582;2023-04-01T03:08:32;62277.91;;;-142.60;100.00
75438;BME280;64015;49.392;15.582;2023-04-01T03:11:56;62277.91;;;-142.60;100.00
75438;BME280;64015;49.392;15.582;2023-04-01T03:15:20;62277.91;;;-142.60;100.00
75438;BME280;64015;49.392;15.582;2023-04-01T03:17:46;94218.66;;;5.24;100.00
75438;BME280;64015;49.392;15.582;2023-04-01T03:20:13;94220.22;;;5.25;100.00
75438;BME280;64015;49.392;15.582;2023-04-01T03:22:39;94213.72;;;5.23;100.00
75438;BME280;64015;49.392;15.582;2023-04-01T03:25:06;94217.63;;;5.25;100.00
75438;BME280;64015;49.392;15.582;2023-04-01T03:27:33;94216.84;;;5.25;100.00
75438;BME280;64015;49.392;15.582;2023-04-01T03:30:02;94217.63;;;5.25;100.00
75438;BME280;64015;49.392;15.582;2023-04-01T03:32:27;94211.81;;;5.34;100.00
75438;BME280;64015;49.392;15.582;2023-04-01T03:34:53;94223.84;;;5.35;100.00
75438;BME280;64015;49.392;15.582;2023-04-01T03:38:17;62277.91;;;-142.60;100.00
75438;BME280;64015;49.392;15.582;2023-04-01T03:40:44;94226.97;;;5.37;100.00
75438;BME280;64015;49.392;15.582;2023-04-01T03:43:10;94225.19;;;5.27;100.00
75438;BME280;64015;49.392;15.582;2023-04-01T03:45:48;94226.19;;;5.31;100.00
75438;BME280;64015;49.392;15.582;2023-04-01T03:48:14;94231.44;;;5.31;100.00
75438;BME280;64015;49.392;15.582;2023-04-01T03:50:41;94226.97;;;5.32;100.00
75438;BME280;64015;49.392;15.582;2023-04-01T03:53:06;94223.84;;;5.30;100.00
75438;BME280;64015;49.392;15.582;2023-04-01T03:56:31;62277.91;;;-142.60;100.00
75438;BME280;64015;49.392;15.582;2023-04-01T03:59:55;62277.91;;;-142.60;100.00
75438;BME280;64015;49.392;15.582;2023-04-01T04:03:19;62277.91;;;-142.60;100.00
75438;BME280;64015;49.392;15.582;2023-04-01T04:06:44;62277.91;;;-142.60;100.00
75438;BME280;64015;49.392;15.582;2023-04-01T04:10:09;62277.91;;;-142.60;100.00
75438;BME280;64015;49.392;15.582;2023-04-01T04:13:11;94223.84;;;5.30;100.00
75438;BME280;64015;49.392;15.582;2023-04-01T04:15:38;94241.09;;;5.31;100.00
75438;BME280;64015;49.392;15.582;2023-04-01T04:18:03;94241.09;;;5.36;100.00
75438;BME280;64015;49.392;15.582;2023-04-01T04:20:29;94245.53;;;5.35;100.00
75438;BME280;64015;49.392;15.582;2023-04-01T04:22:55;94241.56;;;5.38;100.00
75438;BME280;64015;49.392;15.582;2023-04-01T04:25:34;94241.56;;;5.38;100.00
75438;BME280;64015;49.392;15.582;2023-04-01T04:27:59;94246.06;;;5.32;100.00
75438;BME280;64015;49.392;15.582;2023-04-01T04:30:25;94245.25;;;5.37;100.00
75438;BME280;64015;49.392;15.582;2023-04-01T04:32:51;94243.69;;;5.36;100.00
75438;BME280;64015;49.392;15.582;2023-04-01T04:35:16;94250.50;;;5.37;100.00
75438;BME280;64015;49.392;15.582;2023-04-01T04:37:42;94254.16;;;5.36;100.00
75438;BME280;64015;49.392;15.582;2023-04-01T04:40:08;94247.13;;;5.31;100.00
75438;BME280;64015;49.392;15.582;2023-04-01T04:42:33;94249.16;;;5.39;100.00
75438;BME280;64015;49.392;15.582;2023-04-01T04:44:59;94239.38;;;5.55;100.00
75438;BME280;64015;49.392;15.582;2023-04-01T04:47:25;94249.59;;;5.51;100.00
75438;BME280;64015;49.392;15.582;2023-04-01T04:49:51;94259.22;;;5.61;100.00
75438;BME280;64015;49.392;15.582;2023-04-01T04:52:16;94246.59;;;5.68;100.00
75438;BME280;64015;49.392;15.582;2023-04-01T04:54:42;94256.06;;;5.64;100.00
75438;BME280;64015;49.392;15.582;2023-04-01T04:57:07;94248.41;;;5.73;100.00
75438;BME280;64015;49.392;15.582;2023-04-01T04:59:33;94240.50;;;5.78;100.00
75438;BME280;64015;49.392;15.582;2023-04-01T05:01:59;94243.88;;;5.83;100.00
75438;BME280;64015;49.392;15.582;2023-04-01T05:04:25;94246.53;;;5.78;100.00
75438;BME280;64015;49.392;15.582;2023-04-01T05:06:50;94237.34;;;5.81;99.92
75438;BME280;64015;49.392;15.582;2023-04-01T05:09:17;94245.41;;;5.84;99.63
75438;BME280;64015;49.392;15.582;2023-04-01T05:11:42;94243.38;;;5.81;100.00
75438;BME280;64015;49.392;15.582;2023-04-01T05:14:15;94240.19;;;5.84;100.00
75438;BME280;64015;49.392;15.582;2023-04-01T05:16:41;94243.13;;;5.78;100.00
75438;BME280;64015;49.392;15.582;2023-04-01T05:19:07;94238.41;;;5.80;100.00
75438;BME280;64015;49.392;15.582;2023-04-01T05:21:32;94239.66;;;5.87;99.38
75438;BME280;64015;49.392;15.582;2023-04-01T05:23:58;94239.59;;;5.97;98.58
75438;BME280;64015;49.392;15.582;2023-04-01T05:26:23;94254.75;;;6.01;99.62
75438;BME280;64015;49.392;15.582;2023-04-01T05:28:49;94246.38;;;5.98;98.73
75438;BME280;64015;49.392;15.582;2023-04-01T05:31:16;94247.38;;;6.03;98.20
75438;BME280;64015;49.392;15.582;2023-04-01T05:33:42;94248.13;;;6.08;97.84
75438;BME280;64015;49.392;15.582;2023-04-01T05:36:13;94257.81;;;6.08;96.57
75438;BME280;64015;49.392;15.582;2023-04-01T05:38:40;94259.66;;;6.07;96.65
75438;BME280;64015;49.392;15.582;2023-04-01T05:41:05;94245.53;;;6.08;96.34
75438;BME280;64015;49.392;15.582;2023-04-01T05:43:31;94257.56;;;6.09;96.96
75438;BME280;64015;49.392;15.582;2023-04-01T05:45:57;94229.47;;;6.15;94.21
75438;BME280;64015;49.392;15.582;2023-04-01T05:48:23;94242.06;;;6.13;95.54
75438;BME280;64015;49.392;15.582;2023-04-01T05:50:49;94231.09;;;6.11;94.90
75438;BME280;64015;49.392;15.582;2023-04-01T05:53:15;94246.56;;;6.07;94.81
75438;BME280;64015;49.392;15.582;2023-04-01T05:55:41;94234.50;;;6.11;94.01
75438;BME280;64015;49.392;15.582;2023-04-01T05:58:06;94234.78;;;6.10;95.32
75438;BME280;64015;49.392;15.582;2023-04-01T06:00:32;94247.28;;;6.13;94.76
75438;BME280;64015;49.392;15.582;2023-04-01T06:02:59;94242.81;;;6.18;93.20
75438;BME280;64015;49.392;15.582;2023-04-01T06:05:28;94239.88;;;6.25;92.66
75438;BME280;64015;49.392;15.582;2023-04-01T06:08:00;94292.75;;;6.27;91.82
75438;BME280;64015;49.392;15.582;2023-04-01T06:13:28;94265.84;;;6.45;90.59
75438;BME280;64015;49.392;15.582;2023-04-01T06:16:07;94277.84;;;6.51;88.97
75438;BME280;64015;49.392;15.582;2023-04-01T06:21:48;94253.03;;;6.67;88.59
75438;BME280;64015;49.392;15.582;2023-04-01T06:37:53;94268.63;;;6.78;86.61
75438;BME280;64015;49.392;15.582;2023-04-01T06:43:49;94273.34;;;6.81;85.94
75438;BME280;64015;49.392;15.582;2023-04-01T06:51:42;94265.81;;;7.17;84.35
75438;BME280;64015;49.392;15.582;2023-04-01T06:54:17;94270.38;;;7.30;82.80
75438;BME280;64015;49.392;15.582;2023-04-01T06:56:45;94273.06;;;7.43;82.87
75438;BME280;64015;49.392;15.582;2023-04-01T06:59:17;94272.78;;;7.45;82.37
75438;BME280;64015;49.392;15.582;2023-04-01T07:01:52;94269.75;;;7.57;80.85
75438;BME280;64015;49.392;15.582;2023-04-01T07:04:31;94266.88;;;7.72;81.81
75438;BME280;64015;49.392;15.582;2023-04-01T07:07:01;94272.84;;;7.77;81.04
75438;BME280;64015;49.392;15.582;2023-04-01T07:09:38;94271.34;;;7.71;78.91
75438;BME280;64015;49.392;15.582;2023-04-01T07:12:15;94283.00;;;7.65;79.76
75438;BME280;64015;49.392;15.582;2023-04-01T07:14:47;94266.13;;;7.53;79.52
75438;BME280;64015;49.392;15.582;2023-04-01T07:17:17;94258.50;;;7.70;78.33
75438;BME280;64015;49.392;15.582;2023-04-01T07:20:11;94279.38;;;7.80;78.62
75438;BME280;64015;49.392;15.582;2023-04-01T07:22:43;94269.56;;;8.04;78.85
75438;BME280;64015;49.392;15.582;2023-04-01T07:25:15;94272.47;;;8.16;77.42
75438;BME280;64015;49.392;15.582;2023-04-01T07:27:42;94279.28;;;8.17;77.64
75438;BME280;64015;49.392;15.582;2023-04-01T07:30:17;94275.09;;;8.35;77.77
75438;BME280;64015;49.392;15.582;2023-04-01T07:33:04;94274.03;;;8.36;76.37
75438;BME280;64015;49.392;15.582;2023-04-01T07:35:47;94279.56;;;8.35;76.09
75438;BME280;64015;49.392;15.582;2023-04-01T07:41:23;94267.47;;;8.52;74.25
75438;BME280;64015;49.392;15.582;2023-04-01T07:44:13;94291.47;;;8.46;74.13
75438;BME280;64015;49.392;15.582;2023-04-01T07:52:31;94273.41;;;8.85;74.10
75438;BME280;64015;49.392;15.582;2023-04-01T08:00:26;94276.44;;;8.79;74.37
75438;BME280;64015;49.392;15.582;2023-04-01T08:06:00;94297.72;;;9.82;68.19
75438;BME280;64015;49.392;15.582;2023-04-01T08:08:50;94277.13;;;9.61;70.14
75438;BME280;64015;49.392;15.582;2023-04-01T08:12:00;94287.38;;;9.49;68.59
75438;BME280;64015;49.392;15.582;2023-04-01T08:17:19;94285.47;;;9.14;71.54
75438;BME280;64015;49.392;15.582;2023-04-01T08:22:50;94270.22;;;9.38;71.54
75438;BME280;64015;49.392;15.582;2023-04-01T08:25:22;94308.16;;;9.10;69.21
75438;BME280;64015;49.392;15.582;2023-04-01T08:28:14;94344.03;;;9.19;69.74
75438;BME280;64015;49.392;15.582;2023-04-01T08:33:28;94315.88;;;9.33;69.51
75438;BME280;64015;49.392;15.582;2023-04-01T08:36:07;94339.47;;;9.25;68.11
75438;BME280;64015;49.392;15.582;2023-04-01T08:45:15;62277.91;;;-142.60;100.00
75438;BME280;64015;49.392;15.582;2023-04-01T08:56:15;62277.91;;;-142.60;100.00
75438;BME280;64015;49.392;15.582;2023-04-01T09:38:35;94329.28;;;9.59;66.66
75438;BME280;64015;49.392;15.582;2023-04-01T09:41:16;94325.66;;;9.55;67.58
75438;BME280;64015;49.392;15.582;2023-04-01T09:45:09;62277.91;;;-142.60;100.00
75438;BME280;64015;49.392;15.582;2023-04-01T09:52:09;62277.91;;;-142.60;100.00
75438;BME280;64015;49.392;15.582;2023-04-01T09:56:01;62277.91;;;-142.60;100.00
75438;BME280;64015;49.392;15.582;2023-04-01T10:48:23;94353.66;;;9.51;65.83
75438;BME280;64015;49.392;15.582;2023-04-01T10:53:50;94350.25;;;10.00;62.77
75438;BME280;64015;49.392;15.582;2023-04-01T11:22:12;94351.75;;;10.15;61.13
75438;BME280;64015;49.392;15.582;2023-04-01T11:24:55;94349.16;;;10.37;60.47
75438;BME280;64015;49.392;15.582;2023-04-01T11:33:02;94359.63;;;10.51;58.72
75438;BME280;64015;49.392;15.582;2023-04-01T11:41:13;94346.03;;;10.58;58.75
75438;BME280;64015;49.392;15.582;2023-04-01T11:47:00;94355.22;;;10.38;60.11
75438;BME280;64015;49.392;15.582;2023-04-01T11:58:10;94357.41;;;10.22;60.99
75438;BME280;64015;49.392;15.582;2023-04-01T12:06:40;94355.34;;;10.86;60.27
75438;BME280;64015;49.392;15.582;2023-04-01T12:09:25;94369.75;;;11.11;58.80
75438;BME280;64015;49.392;15.582;2023-04-01T12:15:26;94350.56;;;13.34;53.08
75438;BME280;64015;49.392;15.582;2023-04-01T12:20:56;94355.06;;;12.70;50.82
75438;BME280;64015;49.392;15.582;2023-04-01T12:23:41;94377.28;;;12.95;49.99
75438;BME280;64015;49.392;15.582;2023-04-01T12:42:04;94374.47;;;12.91;50.45
75438;BME280;64015;49.392;15.582;2023-04-01T12:55:12;94347.75;;;16.03;44.31
75438;BME280;64015;49.392;15.582;2023-04-01T12:58:19;94372.56;;;13.85;49.16
75438;BME280;64015;49.392;15.582;2023-04-01T13:03:56;94385.59;;;12.50;52.71
75438;BME280;64015;49.392;15.582;2023-04-01T13:06:52;94395.59;;;11.31;59.97
75438;BME280;64015;49.392;15.582;2023-04-01T13:15:32;94397.41;;;9.20;73.59
75438;BME280;64015;49.392;15.582;2023-04-01T13:20:58;94392.53;;;10.54;68.71
75438;BME280;64015;49.392;15.582;2023-04-01T13:32:24;94378.28;;;16.21;45.37
75438;BME280;64015;49.392;15.582;2023-04-01T14:03:27;94359.84;;;18.99;39.78
75438;BME280;64015;49.392;15.582;2023-04-01T14:06:20;94375.56;;;18.46;39.28
75438;BME280;64015;49.392;15.582;2023-04-01T14:17:19;94334.59;;;21.11;35.04
75438;BME280;64015;49.392;15.582;2023-04-01T14:23:09;94344.53;;;19.42;34.37
75438;BME280;64015;49.392;15.582;2023-04-01T14:26:00;94343.03;;;19.67;35.36
75438;BME280;64015;49.392;15.582;2023-04-01T14:34:11;94366.56;;;18.00;36.25
75438;BME280;64015;49.392;15.582;2023-04-01T14:42:23;94352.06;;;16.75;38.71
75438;BME280;64015;49.392;15.582;2023-04-01T14:47:27;94374.00;;;13.15;48.23
75438;BME280;64015;49.392;15.582;2023-04-01T14:50:13;94362.31;;;12.90;49.65
75438;BME280;64015;49.392;15.582;2023-04-01T14:52:54;94365.47;;;12.75;51.10
75438;BME280;64015;49.392;15.582;2023-04-01T15:00:50;94367.53;;;15.32;44.30
75438;BME280;64015;49.392;15.582;2023-04-01T15:03:39;94351.56;;;16.58;42.15
75438;BME280;64015;49.392;15.582;2023-04-01T15:09:03;94356.34;;;17.55;39.71
75438;BME280;64015;49.392;15.582;2023-04-01T15:36:44;94407.75;;;10.79;59.20
75438;BME280;64015;49.392;15.582;2023-04-01T15:56:26;94415.56;;;12.89;55.13
75438;BME280;64015;49.392;15.582;2023-04-01T16:07:37;94423.59;;;10.07;66.54
75438;BME280;64015;49.392;15.582;2023-04-01T16:12:58;94422.13;;;11.57;62.57
75438;BME280;64015;49.392;15.582;2023-04-01T16:18:17;94417.63;;;12.75;58.75
75438;BME280;64015;49.392;15.582;2023-04-01T16:21:09;94417.16;;;12.64;58.21
75438;BME280;64015;49.392;15.582;2023-04-01T16:23:49;94414.00;;;10.83;63.08
75438;BME280;64015;49.392;15.582;2023-04-01T16:34:41;94439.41;;;10.07;67.34
75438;BME280;64015;49.392;15.582;2023-04-01T16:37:13;94440.19;;;9.94;67.91
75438;BME280;64015;49.392;15.582;2023-04-01T16:39:49;94436.81;;;9.80;68.65
75438;BME280;64015;49.392;15.582;2023-04-01T16:42:49;94438.25;;;9.31;70.20
75438;BME280;64015;49.392;15.582;2023-04-01T16:45:34;94443.13;;;9.24;70.61
75438;BME280;64015;49.392;15.582;2023-04-01T16:48:12;94445.84;;;9.19;70.51
75438;BME280;64015;49.392;15.582;2023-04-01T16:50:53;94445.44;;;8.98;71.24
75438;BME280;64015;49.392;15.582;2023-04-01T16:53:43;94447.63;;;8.91;72.13
75438;BME280;64015;49.392;15.582;2023-04-01T16:56:21;94449.03;;;8.70;73.80
75438;BME280;64015;49.392;15.582;2023-04-01T16:59:07;94457.63;;;8.75;73.55
75438;BME280;64015;49.392;15.582;2023-04-01T17:01:47;94458.41;;;8.76;73.58
75438;BME280;64015;49.392;15.582;2023-04-01T17:06:58;94455.59;;;8.35;75.77
75438;BME280;64015;49.392;15.582;2023-04-01T17:23:12;94502.09;;;8.15;79.00
75438;BME280;64015;49.392;15.582;2023-04-01T17:29:17;94530.38;;;7.76;85.55
75438;BME280;64015;49.392;15.582;2023-04-01T17:39:38;94516.00;;;7.16;95.95
75438;BME280;64015;49.392;15.582;2023-04-01T17:42:15;94517.00;;;7.20;96.66
75438;BME280;64015;49.392;15.582;2023-04-01T17:53:19;94533.34;;;7.11;93.97
75438;BME280;64015;49.392;15.582;2023-04-01T17:58:46;94530.81;;;7.01;95.15
75438;BME280;64015;49.392;15.582;2023-04-01T18:12:16;94551.88;;;6.47;97.84
75438;BME280;64015;49.392;15.582;2023-04-01T18:17:45;94553.34;;;6.58;96.90
75438;BME280;64015;49.392;15.582;2023-04-01T18:20:33;94563.13;;;6.48;97.20
75438;BME280;64015;49.392;15.582;2023-04-01T18:23:14;94561.78;;;6.50;96.54
75438;BME280;64015;49.392;15.582;2023-04-01T18:25:48;94562.88;;;6.44;96.18
75438;BME280;64015;49.392;15.582;2023-04-01T18:42:16;94580.53;;;6.72;95.37
75438;BME280;64015;49.392;15.582;2023-04-01T18:45:14;94585.19;;;6.86;92.11
75438;BME280;64015;49.392;15.582;2023-04-01T18:48:06;94589.66;;;6.85;93.47
75438;BME280;64015;49.392;15.582;2023-04-01T18:50:41;94589.34;;;6.92;93.38
75438;BME280;64015;49.392;15.582;2023-04-01T18:56:03;94596.41;;;6.91;93.24
75438;BME280;64015;49.392;15.582;2023-04-01T18:58:46;94597.22;;;6.87;92.99
75438;BME280;64015;49.392;15.582;2023-04-01T19:01:28;94598.19;;;6.96;92.59
75438;BME280;64015;49.392;15.582;2023-04-01T19:06:35;94602.81;;;6.75;94.17
75438;BME280;64015;49.392;15.582;2023-04-01T19:09:17;94599.63;;;6.83;93.74
75438;BME280;64015;49.392;15.582;2023-04-01T19:14:22;94600.13;;;6.85;92.41
75438;BME280;64015;49.392;15.582;2023-04-01T19:19:54;94613.50;;;6.84;93.04
75438;BME280;64015;49.392;15.582;2023-04-01T19:28:01;94620.31;;;6.85;93.52
75438;BME280;64015;49.392;15.582;2023-04-01T19:36:22;94623.41;;;6.92;92.27
75438;BME280;64015;49.392;15.582;2023-04-01T19:38:58;94621.78;;;6.96;91.39
75438;BME280;64015;49.392;15.582;2023-04-01T19:44:28;94629.34;;;7.07;90.03
75438;BME280;64015;49.392;15.582;2023-04-01T19:52:36;94641.13;;;7.05;90.93
75438;BME280;64015;49.392;15.582;2023-04-01T19:55:22;94644.28;;;7.07;91.78
75438;BME280;64015;49.392;15.582;2023-04-01T20:00:59;94656.91;;;7.00;91.54
75438;BME280;64015;49.392;15.582;2023-04-01T20:08:37;94653.00;;;6.97;91.38
75438;BME280;64015;49.392;15.582;2023-04-01T20:11:18;94656.16;;;6.94;91.72
75438;BME280;64015;49.392;15.582;2023-04-01T20:14:13;94658.06;;;6.84;92.57
75438;BME280;64015;49.392;15.582;2023-04-01T20:19:41;94651.50;;;6.81;92.84
75438;BME280;64015;49.392;15.582;2023-04-01T20:25:15;94647.84;;;6.82;92.65
75438;BME280;64015;49.392;15.582;2023-04-01T20:38:56;94654.91;;;6.82;92.81
75438;BME280;64015;49.392;15.582;2023-04-01T20:41:26;94657.84;;;6.75;93.20
75438;BME280;64015;49.392;15.582;2023-04-01T20:44:12;94656.50;;;6.83;92.93
75438;BME280;64015;49.392;15.582;2023-04-01T20:46:47;94661.22;;;6.81;92.54
75438;BME280;64015;49.392;15.582;2023-04-01T20:49:39;94663.31;;;6.79;93.19
75438;BME280;64015;49.392;15.582;2023-04-01T20:54:59;94663.88;;;6.76;93.70
75438;BME280;64015;49.392;15.582;2023-04-01T21:06:10;94666.94;;;6.88;92.47
75438;BME280;64015;49.392;15.582;2023-04-01T21:17:21;94663.09;;;6.75;93.16
75438;BME280;64015;49.392;15.582;2023-04-01T21:20:06;94672.78;;;6.74;93.50
75438;BME280;64015;49.392;15.582;2023-04-01T21:22:59;94668.06;;;6.71;93.09
75438;BME280;64015;49.392;15.582;2023-04-01T21:38:27;94681.03;;;6.48;94.74
75438;BME280;64015;49.392;15.582;2023-04-01T21:41:18;94678.38;;;6.58;94.22
75438;BME280;64015;49.392;15.582;2023-04-01T21:54:57;94684.44;;;6.48;95.29
75438;BME280;64015;49.392;15.582;2023-04-01T22:05:34;94692.25;;;6.53;95.72
75438;BME280;64015;49.392;15.582;2023-04-01T22:11:04;94681.50;;;6.50;97.16
75438;BME280;64015;49.392;15.582;2023-04-01T22:13:41;94686.53;;;6.46;96.69
75438;BME280;64015;49.392;15.582;2023-04-01T22:19:00;94691.50;;;6.48;96.21
75438;BME280;64015;49.392;15.582;2023-04-01T22:21:45;94691.47;;;6.58;95.52
75438;BME280;64015;49.392;15.582;2023-04-01T22:25:07;94688.59;;;6.54;95.58
75438;BME280;64015;49.392;15.582;2023-04-01T22:27:26;94688.53;;;6.64;94.63
75438;BME280;64015;49.392;15.582;2023-04-01T22:30:12;94691.47;;;6.58;95.59
75438;BME280;64015;49.392;15.582;2023-04-01T22:32:44;94691.47;;;6.58;95.26
75438;BME280;64015;49.392;15.582;2023-04-01T22:41:19;94690.88;;;6.71;95.19
75438;BME280;64015;49.392;15.582;2023-04-01T22:43:54;94692.44;;;6.72;95.58
75438;BME280;64015;49.392;15.582;2023-04-01T22:46:44;94692.47;;;6.67;96.33
75438;BME280;64015;49.392;15.582;2023-04-01T22:49:22;94693.31;;;6.57;97.49
75438;BME280;64015;49.392;15.582;2023-04-01T22:54:56;94694.31;;;6.66;97.83
75438;BME280;64015;49.392;15.582;2023-04-01T23:00:28;94701.66;;;6.59;99.05
75438;BME280;64015;49.392;15.582;2023-04-01T23:05:26;94701.69;;;6.54;100.00
75438;BME280;64015;49.392;15.582;2023-04-01T23:08:04;94696.25;;;6.35;100.00
75438;BME280;64015;49.392;15.582;2023-04-01T23:10:44;94703.84;;;6.32;100.00
75438;BME280;64015;49.392;15.582;2023-04-01T23:13:19;94698.34;;;6.39;100.00
75438;BME280;64015;49.392;15.582;2023-04-01T23:15:46;94704.34;;;6.34;100.00
75438;BME280;64015;49.392;15.582;2023-04-01T23:18:23;94699.94;;;6.24;100.00
75438;BME280;64015;49.392;15.582;2023-04-01T23:29:13;94703.56;;;6.33;100.00
75438;BME280;64015;49.392;15.582;2023-04-01T23:31:37;94701.19;;;6.42;100.00
75438;BME280;64015;49.392;15.582;2023-04-01T23:36:39;94712.25;;;6.29;100.00
75438;BME280;64015;49.392;15.582;2023-04-01T23:39:35;94706.22;;;6.28;100.00
75438;BME280;64015;49.392;15.582;2023-04-01T23:42:07;94710.66;;;6.38;100.00
75438;BME280;64015;49.392;15.582;2023-04-01T23:44:38;94708.28;;;6.36;100.00
75438;BME280;64015;49.392;15.582;2023-04-01T23:47:06;94708.53;;;6.40;100.00
75438;BME280;64015;49.392;15.582;2023-04-01T23:49:40;94714.31;;;6.37;100.00
75438;BME280;64015;49.392;15.582;2023-04-01T23:52:26;94712.72;;;6.46;100.00
75438;BME280;64015;49.392;15.582;2023-04-01T23:54:55;94712.16;;;6.54;100.00
75438;BME280;64015;49.392;15.582;2023-04-01T23:57:28;94709.31;;;6.30;100.00
